Time;durP1;ratioP1;P1;durP2;ratioP2;P2;SDS_P1;SDS_P2;PMS_P1;PMS_P2;Temp;Humidity;BMP_temperature;BMP_pressure;BME280_temperature;BME280_humidity;BME280_pressure;Samples;Min_cycle;Max_cycle;Signal;HPM_P1;HPM_P2
2022/03/29 00:01:05;;;;;;;0.00;0.00;;;7.00;99.90;;;;;;5047685;28;20041;-65
2022/03/29 00:03:31;;;;;;;0.00;0.00;;;7.00;99.90;;;;;;5052728;28;20484;-66
2022/03/29 00:05:56;;;;;;;0.00;0.00;;;7.00;99.90;;;;;;5044182;28;20525;-66
2022/03/29 00:08:22;;;;;;;0.00;0.00;;;7.10;99.90;;;;;;5044971;28;20123;-65
2022/03/29 00:10:48;;;;;;;0.00;0.00;;;7.00;99.90;;;;;;5043990;28;20052;-65
2022/03/29 00:13:13;;;;;;;0.00;0.00;;;7.00;99.90;;;;;;5044600;28;20079;-65
2022/03/29 00:15:39;;;;;;;0.00;0.00;;;7.00;99.90;;;;;;5044327;28;20824;-62
2022/03/29 00:18:05;;;;;;;0.00;0.00;;;7.10;99.90;;;;;;5044082;28;20048;-65
2022/03/29 00:20:31;;;;;;;0.00;0.00;;;7.00;99.90;;;;;;5026440;28;20044;-65
2022/03/29 00:22:56;;;;;;;0.00;0.00;;;7.00;99.90;;;;;;5043443;28;20047;-67
2022/03/29 00:25:22;;;;;;;0.40;0.40;;;7.20;99.90;;;;;;5044288;28;20535;-65
2022/03/29 00:27:49;;;;;;;0.00;0.00;;;7.00;99.90;;;;;;5044301;28;20029;-65
2022/03/29 00:30:16;;;;;;;0.00;0.00;;;7.00;99.90;;;;;;5044135;28;20127;-65
2022/03/29 00:32:45;;;;;;;0.00;0.00;;;6.90;99.90;;;;;;5043419;28;20059;-65
2022/03/29 00:35:11;;;;;;;0.00;0.00;;;6.90;99.90;;;;;;5044258;28;20123;-65
2022/03/29 00:37:42;;;;;;;0.00;0.00;;;6.90;99.90;;;;;;5043633;28;20049;-64
2022/03/29 00:40:10;;;;;;;0.00;0.00;;;6.90;99.90;;;;;;5044375;28;20149;-65
2022/03/29 00:42:36;;;;;;;0.00;0.00;;;6.90;99.90;;;;;;5044050;28;20499;-65
2022/03/29 00:45:02;;;;;;;0.00;0.00;;;6.90;99.90;;;;;;5043638;28;20060;-65
2022/03/29 00:47:28;;;;;;;0.00;0.00;;;6.90;99.90;;;;;;5043381;28;20495;-65
2022/03/29 00:49:54;;;;;;;0.00;0.00;;;7.00;99.90;;;;;;5043526;28;20103;-65
2022/03/29 00:52:20;;;;;;;0.00;0.00;;;7.00;99.90;;;;;;5044022;28;20048;-65
2022/03/29 00:54:46;;;;;;;0.00;0.00;;;7.00;99.90;;;;;;5025573;28;20657;-65
2022/03/29 00:57:11;;;;;;;0.00;0.00;;;7.10;99.90;;;;;;5043958;28;20048;-65
2022/03/29 00:59:40;;;;;;;0.15;0.15;;;7.00;99.90;;;;;;5043746;28;20041;-65
2022/03/29 01:02:06;;;;;;;0.00;0.00;;;7.00;99.90;;;;;;5050065;28;20036;-65
2022/03/29 01:04:32;;;;;;;0.00;0.00;;;6.90;99.90;;;;;;5047374;28;20036;-65
2022/03/29 01:06:58;;;;;;;0.00;0.00;;;6.90;99.90;;;;;;5042903;28;20045;-65
2022/03/29 01:09:28;;;;;;;0.00;0.00;;;6.90;99.90;;;;;;5043940;28;20462;-65
2022/03/29 01:11:55;;;;;;;0.00;0.00;;;6.90;99.90;;;;;;5042428;28;20120;-65
2022/03/29 01:14:22;;;;;;;0.00;0.00;;;6.90;99.90;;;;;;5025727;28;20416;-65
2022/03/29 01:19:35;;;;;;;0.00;0.00;;;6.90;99.90;;;;;;5043601;28;20045;-65
2022/03/29 01:22:07;;;;;;;0.00;0.00;;;7.00;99.90;;;;;;5043612;28;20049;-65
2022/03/29 01:24:35;;;;;;;0.00;0.00;;;7.00;99.90;;;;;;5043359;28;20076;-66
2022/03/29 01:27:02;;;;;;;0.00;0.00;;;6.90;99.90;;;;;;5043691;28;20853;-65
2022/03/29 01:29:32;;;;;;;0.00;0.00;;;6.90;99.90;;;;;;5043296;28;20587;-65
2022/03/29 01:32:01;;;;;;;0.00;0.00;;;6.90;99.90;;;;;;5042093;28;20068;-65
2022/03/29 01:34:28;;;;;;;0.00;0.00;;;6.90;99.90;;;;;;5043407;28;20045;-65
2022/03/29 01:36:54;;;;;;;0.00;0.00;;;6.90;99.90;;;;;;5042660;28;20072;-66
2022/03/29 01:39:20;;;;;;;0.00;0.00;;;6.80;99.90;;;;;;5043043;28;20663;-65
2022/03/29 01:41:46;;;;;;;0.00;0.00;;;6.80;99.90;;;;;;5042055;28;20575;-65
2022/03/29 01:44:12;;;;;;;0.00;0.00;;;6.80;99.90;;;;;;5042996;28;20698;-65
2022/03/29 01:46:38;;;;;;;0.00;0.00;;;6.80;99.90;;;;;;5042120;28;20115;-65
2022/03/29 01:49:04;;;;;;;0.00;0.00;;;6.70;99.90;;;;;;5043212;28;20448;-65
2022/03/29 01:51:30;;;;;;;0.00;0.00;;;6.70;99.90;;;;;;5043263;28;20408;-65
2022/03/29 01:53:59;;;;;;;0.00;0.00;;;6.60;99.90;;;;;;5042858;28;20048;-65
2022/03/29 01:56:34;;;;;;;0.00;0.00;;;6.70;99.90;;;;;;5042702;28;20091;-65
2022/03/29 01:59:04;;;;;;;0.00;0.00;;;6.70;99.90;;;;;;5043079;28;20056;-64
2022/03/29 02:01:29;;;;;;;0.00;0.00;;;6.70;99.90;;;;;;5026820;28;20049;-65
2022/03/29 02:03:55;;;;;;;0.00;0.00;;;6.70;99.90;;;;;;5051044;28;20127;-65
2022/03/29 02:06:21;;;;;;;0.00;0.00;;;6.80;99.90;;;;;;5041985;28;20053;-65
2022/03/29 02:08:46;;;;;;;0.00;0.00;;;6.80;99.90;;;;;;5042446;28;20048;-65
2022/03/29 02:11:13;;;;;;;0.00;0.00;;;6.80;99.90;;;;;;5042496;28;20052;-65
2022/03/29 02:13:39;;;;;;;0.00;0.00;;;7.90;99.90;;;;;;5024479;28;20057;-65
2022/03/29 02:16:05;;;;;;;0.00;0.00;;;7.90;99.90;;;;;;5042809;28;20048;-65
2022/03/29 02:18:31;;;;;;;0.00;0.00;;;7.00;99.90;;;;;;5042233;28;20132;-65
2022/03/29 02:20:56;;;;;;;0.00;0.00;;;7.10;99.90;;;;;;5042034;28;20175;-65
2022/03/29 02:23:22;;;;;;;0.00;0.00;;;7.10;99.90;;;;;;5041832;28;20123;-65
2022/03/29 02:25:48;;;;;;;0.00;0.00;;;7.00;99.90;;;;;;5042142;28;20127;-65
2022/03/29 02:28:14;;;;;;;0.00;0.00;;;7.10;99.90;;;;;;5042376;28;20033;-65
2022/03/29 02:30:40;;;;;;;0.00;0.00;;;7.40;99.90;;;;;;5042306;28;20671;-64
2022/03/29 02:33:06;;;;;;;0.00;0.00;;;7.10;99.90;;;;;;5040767;28;20037;-65
2022/03/29 02:35:32;;;;;;;0.00;0.00;;;7.10;99.90;;;;;;5042921;28;20051;-65
2022/03/29 02:37:59;;;;;;;0.00;0.00;;;7.10;99.90;;;;;;5041726;28;20483;-65
2022/03/29 02:40:25;;;;;;;0.00;0.00;;;7.20;99.90;;;;;;5024278;28;21267;-65
2022/03/29 02:42:53;;;;;;;0.00;0.00;;;7.10;99.90;;;;;;5041687;28;20056;-65
2022/03/29 02:45:21;;;;;;;0.00;0.00;;;7.10;99.90;;;;;;5042660;28;20045;-65
2022/03/29 02:47:49;;;;;;;0.00;0.00;;;7.10;99.90;;;;;;5044032;28;20423;-65
2022/03/29 02:50:15;;;;;;;0.00;0.00;;;7.00;99.90;;;;;;5046128;28;20111;-64
2022/03/29 02:52:48;;;;;;;0.00;0.00;;;7.00;99.90;;;;;;5028155;28;20144;-64
2022/03/29 02:55:15;;;;;;;0.00;0.00;;;7.00;99.90;;;;;;5028677;28;20439;-65
2022/03/29 02:57:42;;;;;;;0.00;0.00;;;6.90;99.90;;;;;;5045228;28;20052;-65
2022/03/29 03:00:09;;;;;;;0.00;0.00;;;6.90;99.90;;;;;;5046204;28;20053;-65
2022/03/29 03:02:36;;;;;;;0.00;0.00;;;6.90;99.90;;;;;;5056346;28;20324;-65
2022/03/29 03:05:03;;;;;;;0.00;0.00;;;6.90;99.90;;;;;;5045425;28;20098;-65
2022/03/29 03:07:29;;;;;;;0.00;0.00;;;7.00;99.90;;;;;;5045711;28;20136;-65
2022/03/29 03:09:55;;;;;;;0.00;0.00;;;6.90;99.90;;;;;;5045827;28;20467;-65
2022/03/29 03:12:21;;;;;;;0.00;0.00;;;7.00;99.90;;;;;;5045776;28;20270;-65
2022/03/29 03:14:48;;;;;;;0.00;0.00;;;7.00;99.90;;;;;;5045036;28;20064;-65
2022/03/29 03:17:13;;;;;;;0.00;0.00;;;7.00;99.90;;;;;;5044906;28;20041;-65
2022/03/29 03:19:39;;;;;;;0.00;0.00;;;6.90;99.90;;;;;;5045496;28;20119;-61
2022/03/29 03:22:05;;;;;;;0.00;0.00;;;6.80;99.90;;;;;;5045109;28;20037;-62
2022/03/29 03:24:30;;;;;;;0.00;0.00;;;7.90;99.90;;;;;;5046228;28;20590;-65
2022/03/29 03:26:56;;;;;;;0.00;0.00;;;6.80;99.90;;;;;;5045087;28;20399;-65
2022/03/29 03:29:22;;;;;;;0.00;0.00;;;6.80;99.90;;;;;;5045677;28;20037;-65
2022/03/29 03:31:47;;;;;;;0.00;0.00;;;6.80;99.90;;;;;;5044045;28;20396;-65
2022/03/29 03:34:14;;;;;;;0.00;0.00;;;6.90;99.90;;;;;;5045284;28;20080;-65
2022/03/29 03:36:40;;;;;;;0.22;0.22;;;6.80;99.90;;;;;;5045075;28;20123;-65
2022/03/29 03:39:06;;;;;;;0.00;0.00;;;6.80;99.90;;;;;;5045238;28;20079;-65
2022/03/29 03:41:32;;;;;;;0.00;0.00;;;6.70;99.90;;;;;;5045693;28;20053;-65
2022/03/29 03:43:57;;;;;;;0.00;0.00;;;6.70;99.90;;;;;;5044841;28;20049;-65
2022/03/29 03:46:24;;;;;;;0.00;0.00;;;6.70;99.90;;;;;;5044801;28;20048;-65
2022/03/29 03:48:49;;;;;;;0.00;0.00;;;6.80;99.90;;;;;;5044238;28;20090;-65
2022/03/29 03:51:15;;;;;;;0.00;0.00;;;6.80;99.90;;;;;;5045193;28;20547;-64
2022/03/29 03:53:42;;;;;;;0.00;0.00;;;6.80;99.90;;;;;;5044843;28;20407;-65
2022/03/29 03:56:08;;;;;;;0.00;0.00;;;6.80;99.90;;;;;;5045274;28;20041;-65
2022/03/29 03:58:33;;;;;;;0.00;0.00;;;6.80;99.90;;;;;;5043494;28;20537;-65
2022/03/29 04:00:59;;;;;;;0.00;0.00;;;7.00;99.90;;;;;;5046520;28;20040;-65
2022/03/29 04:03:25;;;;;;;0.00;0.00;;;6.80;99.90;;;;;;5039575;28;20049;-64
2022/03/29 04:05:52;;;;;;;0.00;0.00;;;6.80;99.90;;;;;;5043912;28;20431;-65
2022/03/29 04:08:18;;;;;;;0.00;0.00;;;6.90;99.90;;;;;;5027435;28;20053;-65
2022/03/29 04:10:44;;;;;;;0.00;0.00;;;7.60;99.90;;;;;;5026729;28;20095;-64
2022/03/29 04:13:10;;;;;;;0.00;0.00;;;7.10;99.90;;;;;;5044777;28;20088;-65
2022/03/29 04:15:35;;;;;;;0.10;0.10;;;6.80;99.90;;;;;;5043894;28;20045;-65
2022/03/29 04:18:01;;;;;;;0.00;0.00;;;6.80;99.90;;;;;;5026499;28;20389;-65
2022/03/29 04:20:29;;;;;;;0.00;0.00;;;6.80;99.90;;;;;;5044410;28;20041;-65
2022/03/29 04:22:55;;;;;;;0.00;0.00;;;6.80;99.90;;;;;;5044285;28;20048;-65
2022/03/29 04:25:21;;;;;;;0.00;0.00;;;6.80;99.90;;;;;;5009686;28;20056;-65
2022/03/29 04:27:47;;;;;;;0.00;0.00;;;6.70;99.90;;;;;;5044516;28;20112;-65
2022/03/29 04:30:12;;;;;;;0.00;0.00;;;6.70;99.90;;;;;;5044414;28;20186;-65
2022/03/29 04:32:39;;;;;;;0.00;0.00;;;6.70;99.90;;;;;;5043113;28;20060;-65
2022/03/29 04:35:06;;;;;;;0.00;0.00;;;6.70;99.90;;;;;;5044299;28;20041;-65
2022/03/29 04:37:32;;;;;;;0.00;0.00;;;6.70;99.90;;;;;;5044891;28;20446;-65
2022/03/29 04:39:57;;;;;;;0.00;0.00;;;6.70;99.90;;;;;;5043841;28;20044;-65
2022/03/29 04:42:23;;;;;;;0.00;0.00;;;6.80;99.90;;;;;;5043742;28;20048;-65
2022/03/29 04:44:49;;;;;;;0.00;0.00;;;6.80;99.90;;;;;;5043723;28;20045;-65
2022/03/29 04:47:14;;;;;;;0.00;0.00;;;6.70;99.90;;;;;;5043547;28;20395;-64
2022/03/29 04:49:40;;;;;;;0.00;0.00;;;6.70;99.90;;;;;;5043314;28;20484;-65
2022/03/29 04:52:06;;;;;;;0.00;0.00;;;6.70;99.90;;;;;;5044110;28;20492;-65
2022/03/29 04:54:32;;;;;;;0.00;0.00;;;6.60;99.90;;;;;;5044340;28;20052;-65
2022/03/29 04:57:00;;;;;;;0.00;0.00;;;6.50;99.90;;;;;;5043423;28;20052;-65
2022/03/29 04:59:25;;;;;;;0.00;0.00;;;6.60;99.90;;;;;;5043265;28;20056;-65
2022/03/29 05:01:51;;;;;;;0.00;0.00;;;6.60;99.90;;;;;;5036203;28;20461;-64
2022/03/29 05:04:17;;;;;;;0.00;0.00;;;6.60;99.90;;;;;;5049516;28;20398;-65
2022/03/29 05:06:42;;;;;;;0.00;0.00;;;6.60;99.90;;;;;;5042953;28;20049;-65
2022/03/29 05:09:08;;;;;;;0.00;0.00;;;6.60;99.90;;;;;;5043396;28;20077;-65
2022/03/29 05:11:34;;;;;;;0.00;0.00;;;6.50;99.90;;;;;;5043884;28;20044;-65
2022/03/29 05:14:00;;;;;;;0.00;0.00;;;6.50;99.90;;;;;;5043797;28;20059;-65
2022/03/29 05:16:25;;;;;;;0.00;0.00;;;6.50;99.90;;;;;;5042333;28;20041;-65
2022/03/29 05:18:51;;;;;;;0.00;0.00;;;6.50;99.90;;;;;;5025370;28;20045;-65
2022/03/29 05:21:17;;;;;;;0.17;0.10;;;6.50;99.90;;;;;;5043529;28;20045;-65
2022/03/29 05:23:42;;;;;;;0.00;0.00;;;6.60;99.90;;;;;;5042681;28;20037;-65
2022/03/29 05:26:08;;;;;;;0.00;0.00;;;6.60;99.90;;;;;;5042470;28;20049;-65
2022/03/29 05:28:34;;;;;;;0.00;0.00;;;7.40;99.90;;;;;;5043228;28;20483;-65
2022/03/29 05:31:00;;;;;;;0.00;0.00;;;6.70;99.90;;;;;;5024728;28;20114;-65
2022/03/29 05:33:25;;;;;;;0.00;0.00;;;6.60;99.90;;;;;;5043173;28;20045;-65
2022/03/29 05:35:51;;;;;;;0.00;0.00;;;6.60;99.90;;;;;;5042209;28;20037;-65
2022/03/29 05:38:17;;;;;;;0.00;0.00;;;6.60;99.90;;;;;;5025208;28;20040;-64
2022/03/29 05:40:42;;;;;;;0.00;0.00;;;6.50;99.90;;;;;;5042762;28;20451;-65
2022/03/29 05:43:11;;;;;;;0.00;0.00;;;6.50;99.90;;;;;;5042544;28;20033;-65
2022/03/29 05:45:37;;;;;;;0.00;0.00;;;6.50;99.90;;;;;;5042299;28;20079;-65
2022/03/29 05:50:47;;;;;;;0.00;0.00;;;6.40;99.90;;;;;;5027007;28;20041;-64
2022/03/29 05:53:12;;;;;;;0.00;0.00;;;6.50;99.90;;;;;;5042650;28;20545;-65
2022/03/29 05:55:38;;;;;;;0.00;0.00;;;6.40;99.90;;;;;;5025054;28;20033;-65
2022/03/29 05:58:04;;;;;;;0.00;0.00;;;6.40;99.90;;;;;;5042300;28;20084;-65
2022/03/29 06:00:31;;;;;;;0.00;0.00;;;6.40;99.90;;;;;;5042779;28;20048;-65
2022/03/29 06:02:57;;;;;;;0.00;0.00;;;6.40;99.90;;;;;;5052428;28;20057;-65
2022/03/29 06:05:23;;;;;;;0.00;0.00;;;6.40;99.90;;;;;;5042326;28;20090;-65
2022/03/29 06:07:50;;;;;;;0.00;0.00;;;6.40;99.90;;;;;;5023633;28;20049;-65
2022/03/29 06:10:16;;;;;;;0.00;0.00;;;6.50;99.90;;;;;;5042665;28;20052;-65
2022/03/29 06:12:45;;;;;;;0.00;0.00;;;6.50;99.90;;;;;;5042063;28;20514;-65
2022/03/29 06:15:12;;;;;;;0.00;0.00;;;6.50;99.90;;;;;;5041849;28;20047;-66
2022/03/29 06:17:38;;;;;;;0.00;0.00;;;6.50;99.90;;;;;;5041729;28;20059;-64
2022/03/29 06:20:06;;;;;;;0.00;0.00;;;6.50;99.90;;;;;;5042826;28;20053;-65
2022/03/29 06:22:36;;;;;;;0.00;0.00;;;6.50;99.90;;;;;;5042077;28;20037;-63
2022/03/29 06:25:01;;;;;;;0.00;0.00;;;6.50;99.90;;;;;;5024285;28;20057;-63
2022/03/29 06:27:27;;;;;;;0.00;0.00;;;6.60;99.90;;;;;;5024487;28;20128;-64
2022/03/29 06:29:56;;;;;;;0.00;0.00;;;6.60;99.90;;;;;;5042078;28;20443;-63
2022/03/29 06:32:23;;;;;;;0.00;0.00;;;6.60;99.90;;;;;;5041450;28;20041;-65
2022/03/29 06:34:48;;;;;;;0.00;0.00;;;6.60;99.90;;;;;;5024102;28;20053;-65
2022/03/29 06:37:14;;;;;;;0.00;0.00;;;6.60;99.90;;;;;;5042654;28;20037;-64
2022/03/29 06:39:40;;;;;;;0.00;0.00;;;6.60;99.90;;;;;;5023913;28;20543;-64
2022/03/29 06:42:05;;;;;;;0.00;0.00;;;7.60;99.90;;;;;;5023801;28;20107;-64
2022/03/29 06:44:33;;;;;;;0.20;0.20;;;6.70;99.90;;;;;;5042771;28;20047;-64
2022/03/29 06:47:01;;;;;;;0.00;0.00;;;6.80;99.90;;;;;;5041460;28;20561;-64
2022/03/29 06:49:27;;;;;;;0.00;0.00;;;6.70;99.90;;;;;;5041701;28;20415;-64
2022/03/29 06:51:52;;;;;;;0.00;0.00;;;6.70;99.90;;;;;;5041924;28;20045;-64
2022/03/29 06:54:18;;;;;;;0.00;0.00;;;6.70;99.90;;;;;;5041959;28;20484;-64
2022/03/29 06:56:44;;;;;;;0.00;0.00;;;6.80;99.90;;;;;;5041978;28;20120;-64
2022/03/29 06:59:09;;;;;;;0.00;0.00;;;6.80;99.90;;;;;;5041746;28;20083;-64
2022/03/29 07:01:36;;;;;;;0.00;0.00;;;6.80;99.90;;;;;;5044486;28;20484;-64
2022/03/29 07:04:03;;;;;;;0.00;0.00;;;6.90;99.90;;;;;;5050082;28;20071;-65
2022/03/29 07:06:32;;;;;;;0.00;0.00;;;6.90;99.90;;;;;;5041195;28;20625;-64
2022/03/29 07:11:44;;;;;;;0.00;0.00;;;6.90;99.90;;;;;;5041467;28;20394;-64
2022/03/29 07:14:09;;;;;;;0.00;0.00;;;8.00;99.90;;;;;;5041296;28;20048;-64
2022/03/29 07:16:35;;;;;;;0.00;0.00;;;7.10;99.90;;;;;;5041171;28;20124;-65
2022/03/29 07:19:01;;;;;;;0.00;0.00;;;7.30;99.90;;;;;;5042042;28;20127;-64
2022/03/29 07:21:27;;;;;;;0.00;0.00;;;7.20;99.90;;;;;;5041815;28;20065;-65
2022/03/29 07:23:52;;;;;;;0.00;0.00;;;7.30;99.90;;;;;;5041275;28;20535;-65
2022/03/29 07:26:18;;;;;;;0.00;0.00;;;7.30;99.90;;;;;;5041853;28;20037;-65
2022/03/29 07:28:43;;;;;;;0.00;0.00;;;7.30;99.90;;;;;;5041778;28;20048;-63
2022/03/29 07:31:09;;;;;;;0.00;0.00;;;8.30;99.90;;;;;;5040466;28;20148;-72
2022/03/29 07:33:35;;;;;;;0.00;0.00;;;7.40;99.90;;;;;;5043928;28;20476;-60
2022/03/29 07:36:03;;;;;;;0.00;0.00;;;7.40;99.90;;;;;;5027592;28;20492;-62
2022/03/29 07:38:29;;;;;;;0.00;0.00;;;7.60;99.90;;;;;;5027819;28;20056;-62
2022/03/29 07:40:55;;;;;;;0.00;0.00;;;7.50;99.90;;;;;;5044224;28;20049;-62
2022/03/29 07:43:21;;;;;;;0.00;0.00;;;7.60;99.90;;;;;;5045418;28;20141;-65
2022/03/29 07:45:47;;;;;;;0.00;0.00;;;7.50;99.90;;;;;;5026212;28;20470;-67
2022/03/29 07:48:13;;;;;;;0.00;0.00;;;7.50;99.90;;;;;;5044372;28;20128;-64
2022/03/29 07:50:39;;;;;;;0.00;0.00;;;8.00;99.90;;;;;;5044903;28;20504;-61
2022/03/29 07:53:05;;;;;;;0.00;0.00;;;7.60;99.90;;;;;;5045096;28;20072;-64
2022/03/29 07:55:31;;;;;;;0.00;0.00;;;7.60;99.90;;;;;;5027720;28;20684;-64
2022/03/29 07:57:57;;;;;;;0.00;0.00;;;7.70;99.90;;;;;;5044170;28;20132;-64
2022/03/29 08:00:32;;;;;;;0.00;0.00;;;7.70;99.90;;;;;;5026564;28;20124;-64
2022/03/29 08:02:59;;;;;;;0.00;0.00;;;7.70;99.90;;;;;;5039502;28;20045;-64
2022/03/29 08:05:26;;;;;;;0.00;0.00;;;7.70;99.90;;;;;;5026380;28;20053;-65
2022/03/29 08:07:52;;;;;;;0.00;0.00;;;7.70;99.90;;;;;;5044382;28;20056;-64
2022/03/29 08:10:18;;;;;;;0.00;0.00;;;7.70;99.90;;;;;;5045001;28;20102;-65
2022/03/29 08:12:45;;;;;;;0.10;0.10;;;7.70;99.90;;;;;;5043904;28;20451;-64
2022/03/29 08:15:11;;;;;;;0.00;0.00;;;8.10;99.90;;;;;;5044179;28;20047;-62
2022/03/29 08:17:38;;;;;;;0.00;0.00;;;7.70;99.90;;;;;;5044200;28;20124;-64
2022/03/29 08:20:05;;;;;;;0.00;0.00;;;7.80;99.90;;;;;;5044724;28;20482;-65
2022/03/29 08:22:32;;;;;;;0.05;0.05;;;7.80;99.90;;;;;;5026882;28;20128;-64
2022/03/29 08:24:59;;;;;;;0.00;0.00;;;7.80;99.90;;;;;;5044060;28;20047;-64
2022/03/29 08:27:25;;;;;;;0.00;0.00;;;7.80;99.90;;;;;;5044753;28;20051;-64
2022/03/29 08:29:50;;;;;;;0.00;0.00;;;7.80;99.90;;;;;;5026030;28;20488;-65
2022/03/29 08:32:16;;;;;;;0.00;0.00;;;7.80;99.90;;;;;;5043695;28;20540;-65
2022/03/29 08:34:42;;;;;;;0.10;0.10;;;7.90;99.90;;;;;;5043815;28;20045;-64
2022/03/29 08:37:08;;;;;;;0.00;0.00;;;8.00;99.90;;;;;;5044333;28;20048;-65
2022/03/29 08:39:34;;;;;;;0.00;0.00;;;8.10;99.90;;;;;;5044181;28;20488;-65
2022/03/29 08:42:07;;;;;;;0.00;0.00;;;8.10;99.90;;;;;;5044263;28;20607;-64
2022/03/29 08:44:33;;;;;;;0.00;0.00;;;8.20;99.90;;;;;;5043540;28;20064;-65
2022/03/29 08:47:00;;;;;;;0.00;0.00;;;8.30;99.90;;;;;;5024773;28;20130;-64
2022/03/29 08:49:27;;;;;;;0.00;0.00;;;8.30;99.90;;;;;;5044250;28;20402;-65
2022/03/29 08:51:53;;;;;;;0.00;0.00;;;8.40;99.90;;;;;;5043767;28;20071;-65
2022/03/29 08:54:20;;;;;;;0.00;0.00;;;8.40;99.90;;;;;;5043804;28;20051;-64
2022/03/29 08:56:46;;;;;;;0.00;0.00;;;8.50;99.90;;;;;;5043113;28;20660;-64
2022/03/29 08:59:12;;;;;;;0.00;0.00;;;8.40;99.90;;;;;;5043674;28;20045;-64
2022/03/29 09:01:37;;;;;;;0.00;0.00;;;8.70;99.90;;;;;;5046823;28;20037;-64
2022/03/29 09:04:10;;;;;;;0.00;0.00;;;8.50;99.90;;;;;;5050646;28;20049;-64
2022/03/29 09:06:54;;;;;;;0.05;0.05;;;8.40;99.90;;;;;;5043037;28;20049;-64
2022/03/29 09:09:30;;;;;;;0.00;0.00;;;8.50;99.90;;;;;;5043398;28;20053;-64
2022/03/29 09:11:58;;;;;;;0.00;0.00;;;8.60;99.90;;;;;;5043098;28;20087;-64
2022/03/29 09:14:29;;;;;;;0.00;0.00;;;8.70;99.90;;;;;;5025756;28;20045;-64
2022/03/29 09:16:55;;;;;;;0.00;0.00;;;8.70;99.90;;;;;;5042073;28;20751;-64
2022/03/29 09:19:25;;;;;;;0.10;0.10;;;8.80;99.90;;;;;;5043449;28;20045;-64
2022/03/29 09:21:55;;;;;;;0.00;0.00;;;8.90;99.90;;;;;;5025668;28;20079;-64
2022/03/29 09:24:21;;;;;;;0.00;0.00;;;9.00;99.90;;;;;;5040098;28;20542;-64
2022/03/29 09:26:52;;;;;;;0.00;0.00;;;9.10;99.90;;;;;;5062167;28;20083;-64
2022/03/29 09:29:23;;;;;;;0.00;0.00;;;9.20;99.90;;;;;;5062872;28;20206;-64
2022/03/29 09:32:17;;;;;;;0.00;0.00;;;9.30;99.90;;;;;;5061373;28;20036;-64
2022/03/29 09:34:43;;;;;;;0.00;0.00;;;9.50;99.90;;;;;;5062434;28;20052;-63
2022/03/29 09:37:08;;;;;;;0.00;0.00;;;9.40;99.90;;;;;;5062658;28;20475;-63
2022/03/29 09:39:38;;;;;;;0.00;0.00;;;9.10;99.90;;;;;;5054975;28;20147;-64
2022/03/29 09:42:13;;;;;;;0.00;0.00;;;9.30;99.90;;;;;;5043142;28;20483;-64
2022/03/29 09:44:45;;;;;;;;;;;9.20;99.90;;;;;;5027108;28;20049;-65
2022/03/29 09:47:13;;;;;;;0.00;0.00;;;9.30;99.90;;;;;;5061193;28;19920;-64
2022/03/29 09:49:52;;;;;;;0.00;0.00;;;9.30;99.90;;;;;;5062150;28;20134;-61
2022/03/29 09:52:19;;;;;;;0.00;0.00;;;9.30;99.90;;;;;;5061749;28;20224;-63
2022/03/29 09:55:09;;;;;;;0.00;0.00;;;9.40;99.90;;;;;;5044139;28;20049;-63
2022/03/29 09:57:37;;;;;;;0.00;0.00;;;9.40;99.90;;;;;;5061746;28;20040;-64
2022/03/29 10:00:08;;;;;;;0.00;0.00;;;9.40;99.90;;;;;;5043784;28;20105;-64
2022/03/29 10:02:40;;;;;;;0.00;0.00;;;9.40;99.90;;;;;;5055777;28;20036;-64
2022/03/29 10:05:10;;;;;;;0.00;0.00;;;9.40;99.90;;;;;;5041643;28;20044;-65
2022/03/29 10:07:43;;;;;;;0.00;0.00;;;9.40;99.90;;;;;;5041685;28;20534;-64
2022/03/29 10:10:10;;;;;;;0.00;0.00;;;9.50;99.90;;;;;;5042190;28;20049;-65
2022/03/29 10:12:36;;;;;;;0.00;0.00;;;10.40;99.90;;;;;;5041022;28;20052;-66
2022/03/29 10:15:02;;;;;;;0.00;0.00;;;9.60;99.90;;;;;;5041448;28;20093;-64
2022/03/29 10:17:28;;;;;;;0.00;0.00;;;9.70;99.90;;;;;;5042963;28;20047;-64
2022/03/29 10:19:56;;;;;;;0.00;0.00;;;9.80;99.90;;;;;;5061136;28;20180;-64
2022/03/29 10:22:21;;;;;;;0.00;0.00;;;10.30;99.90;;;;;;5051691;28;20502;-65
2022/03/29 10:24:47;;;;;;;0.00;0.00;;;10.00;99.90;;;;;;5061218;28;20044;-64
2022/03/29 10:27:19;;;;;;;0.00;0.00;;;10.00;99.90;;;;;;5061562;28;20068;-64
2022/03/29 10:29:45;;;;;;;0.20;0.20;;;9.90;99.90;;;;;;5055997;28;20052;-64
2022/03/29 10:32:26;;;;;;;0.00;0.00;;;9.90;99.90;;;;;;5040865;28;20037;-65
2022/03/29 10:35:03;;;;;;;0.00;0.00;;;9.90;99.90;;;;;;5041169;28;20115;-64
2022/03/29 10:37:29;;;;;;;0.00;0.00;;;9.90;99.90;;;;;;5041589;28;20044;-64
2022/03/29 10:39:56;;;;;;;0.00;0.00;;;9.90;99.90;;;;;;5041311;28;20044;-63
2022/03/29 10:42:46;;;;;;;0.00;0.00;;;10.00;99.90;;;;;;5041732;28;20048;-65
2022/03/29 10:45:25;;;;;;;0.00;0.00;;;10.10;99.90;;;;;;5040841;28;20106;-65
2022/03/29 10:47:55;;;;;;;0.00;0.00;;;10.20;99.90;;;;;;5041131;28;20146;-64
2022/03/29 10:50:21;;;;;;;0.00;0.00;;;10.20;99.90;;;;;;5042020;28;20239;-64
2022/03/29 10:52:49;;;;;;;0.00;0.00;;;10.30;99.90;;;;;;5041010;28;20610;-65
2022/03/29 10:55:21;;;;;;;0.00;0.00;;;10.20;99.90;;;;;;5041519;28;20116;-65
2022/03/29 10:58:07;;;;;;;0.00;0.00;;;10.20;99.90;;;;;;5040490;28;20132;-65
2022/03/29 11:00:41;;;;;;;0.00;0.00;;;10.20;99.90;;;;;;5023239;28;20041;-65
2022/03/29 11:03:20;;;;;;;0.00;0.00;;;10.20;99.90;;;;;;5046017;28;20047;-65
2022/03/29 11:06:08;;;;;;;0.00;0.00;;;10.30;99.90;;;;;;5060821;28;20057;-64
2022/03/29 11:08:36;;;;;;;0.00;0.00;;;10.20;99.90;;;;;;5064144;28;20051;-65
2022/03/29 11:11:03;;;;;;;0.00;0.00;;;10.20;99.90;;;;;;5065131;28;20049;-65
2022/03/29 11:13:32;;;;;;;0.00;0.00;;;10.30;99.90;;;;;;5065914;28;20045;-65
2022/03/29 11:16:02;;;;;;;0.00;0.00;;;10.90;99.90;;;;;;5063508;28;20044;-65
2022/03/29 11:18:30;;;;;;;0.00;0.00;;;10.40;99.90;;;;;;5065029;28;20085;-65
2022/03/29 11:21:03;;;;;;;0.00;0.00;;;10.30;99.90;;;;;;5064497;28;20048;-65
2022/03/29 11:23:38;;;;;;;0.00;0.00;;;10.40;99.90;;;;;;5047164;28;20543;-64
2022/03/29 11:26:14;;;;;;;0.00;0.00;;;10.40;99.90;;;;;;5065675;28;20040;-66
2022/03/29 11:28:54;;;;;;;0.00;0.00;;;10.50;99.90;;;;;;5063875;28;20040;-65
2022/03/29 11:31:21;;;;;;;0.00;0.00;;;10.50;99.90;;;;;;5046610;28;20463;-65
2022/03/29 11:33:52;;;;;;;0.00;0.00;;;10.40;99.90;;;;;;5064259;28;20763;-65
2022/03/29 11:36:19;;;;;;;0.05;0.05;;;10.40;99.90;;;;;;5046328;28;20530;-65
2022/03/29 11:38:46;;;;;;;0.00;0.00;;;10.30;99.90;;;;;;5064447;28;20131;-64
2022/03/29 11:41:22;;;;;;;0.00;0.00;;;11.40;99.90;;;;;;5064819;28;20108;-64
2022/03/29 11:44:05;;;;;;;0.00;0.00;;;10.50;99.90;;;;;;5063793;28;20398;-64
2022/03/29 11:46:53;;;;;;;0.00;0.00;;;10.60;99.90;;;;;;5064507;28;20102;-65
2022/03/29 11:49:21;;;;;;;0.00;0.00;;;10.70;99.90;;;;;;5064691;28;20080;-65
2022/03/29 11:52:04;;;;;;;0.00;0.00;;;10.60;99.90;;;;;;5064158;28;20087;-63
2022/03/29 11:54:30;;;;;;;0.00;0.00;;;10.60;99.90;;;;;;5046150;28;20090;-64
2022/03/29 11:56:56;;;;;;;0.00;0.00;;;10.70;99.90;;;;;;5063832;28;20037;-65
2022/03/29 11:59:22;;;;;;;0.00;0.00;;;10.70;99.90;;;;;;5064242;28;20048;-65
2022/03/29 12:01:47;;;;;;;0.00;0.00;;;10.70;99.90;;;;;;5056481;28;20483;-65
2022/03/29 12:04:13;;;;;;;0.00;0.00;;;10.60;99.90;;;;;;5049643;28;20045;-64
2022/03/29 12:06:50;;;;;;;0.00;0.00;;;10.70;99.90;;;;;;5043817;28;20060;-64
2022/03/29 12:09:23;;;;;;;0.00;0.00;;;10.60;99.90;;;;;;5044398;28;20377;-65
2022/03/29 12:11:53;;;;;;;0.00;0.00;;;10.50;99.90;;;;;;5043606;28;20132;-64
2022/03/29 12:14:21;;;;;;;0.00;0.00;;;11.40;99.90;;;;;;5044162;28;20082;-64
2022/03/29 12:16:54;;;;;;;0.00;0.00;;;10.30;99.90;;;;;;5056283;28;20032;-65
2022/03/29 12:19:25;;;;;;;0.00;0.00;;;10.30;99.90;;;;;;5044828;28;20049;-65
2022/03/29 12:22:11;;;;;;;0.00;0.00;;;10.40;99.90;;;;;;5063249;28;20044;-64
2022/03/29 12:24:38;;;;;;;0.00;0.00;;;10.40;99.90;;;;;;5063126;28;20051;-59
2022/03/29 12:27:14;;;;;;;0.00;0.00;;;10.50;99.90;;;;;;5046056;28;20054;-66
2022/03/29 12:29:53;;;;;;;0.00;0.00;;;10.70;99.90;;;;;;5062760;28;20036;-66
2022/03/29 12:32:20;;;;;;;0.00;0.00;;;10.80;99.90;;;;;;5045667;28;20044;-66
2022/03/29 12:34:55;;;;;;;0.00;0.00;;;10.80;99.90;;;;;;5052924;28;20464;-66
2022/03/29 12:37:22;;;;;;;0.00;0.00;;;10.90;99.90;;;;;;5043368;28;20421;-66
2022/03/29 12:39:54;;;;;;;0.00;0.00;;;11.10;99.90;;;;;;5046470;28;20040;-66
2022/03/29 12:42:19;;;;;;;0.00;0.00;;;11.20;99.90;;;;;;5063513;28;20036;-66
2022/03/29 12:44:56;;;;;;;0.00;0.00;;;11.40;99.90;;;;;;5061773;28;20089;-66
2022/03/29 12:47:24;;;;;;;0.00;0.00;;;11.50;99.90;;;;;;5063801;28;20049;-66
2022/03/29 12:49:51;;;;;;;0.25;0.03;;;11.10;99.90;;;;;;5063077;28;20059;-65
2022/03/29 12:52:18;;;;;;;0.00;0.00;;;11.40;99.90;;;;;;5063349;28;20045;-65
2022/03/29 12:54:58;;;;;;;0.00;0.00;;;11.40;99.90;;;;;;5063429;28;20040;-65
2022/03/29 12:57:35;;;;;;;0.00;0.00;;;11.40;99.90;;;;;;5063875;28;20228;-66
2022/03/29 13:00:09;;;;;;;0.00;0.00;;;11.40;99.90;;;;;;5062694;28;20490;-65
2022/03/29 13:02:39;;;;;;;0.00;0.00;;;11.30;99.90;;;;;;5056887;28;20090;-66
2022/03/29 13:05:06;;;;;;;0.00;0.00;;;11.30;99.90;;;;;;5043503;28;20530;-66
2022/03/29 13:07:45;;;;;;;0.00;0.00;;;11.20;99.90;;;;;;5049739;28;20087;-67